Portsmouth, New Hampshire
Current Conditions -  °F | °C
As of 10:58 AM on Tuesday 21 Oct 2014 (Local Time) from KPSM Reporting Station
Rain Showers Rain Showers  
Wind Chill: 53°   Ceiling: 2800
Heat Index: 53°   Visibility: 10mi
Dew Point: 49°   Wind: 7mph
Humidity: 84%   Direction: 40°NE
Pressure: 29.98"   Gusts: NA
Location:  43.07°N, 70.77°W
Report Text: KPSM 211458Z 04006KT 10SM VCSH SCT014 OVC028 12/09 A2998 RMK AO2A SLP156 T01190092 58003
Loading
Personal Weather Stations






























Interactive Weather Map New forecast layout! Learn more

10-Day Weather Forecast

Advertisements
Track Severe Weather on mobile